Azamara Quest — 9HOM8 — position and weather

sailwx.info

Track history (hours):
 
Tides and Currents Weather Stations Pressure Air Temp Water Temp Dewpoint Dewpoint Depression Visibility Wind Speed Wind Dir Waves Ship Positions

Azamara Quest

Last reported at 2017-Aug-23 05:18 UTC. Time now 2017-Aug-23 13:38 UTC.
Position N 35°54' E 014°31'.

Length 181 m; draft 5.9 m.

Type: Passenger vessel. MMSI: 256216000.

Date/timePositionNaut miles runAvg speedWind from/ knotsBaromVisibWave heightAir tempDewpointWater temp
2017-Aug-23 05:18N 35°54' E 014°31'2 7.2
2017-Aug-23 05:00N 35°55' E 014°33'611.2
2017-Aug-23 04:30N 36°00' E 014°37'1210.9
2017-Aug-23 03:24N 36°10' E 014°46'9410.2
2017-Aug-22 18:11N 37°40' E 015°19'311.6
2017-Aug-22 17:55N 37°43' E 015°18'511.8
2017-Aug-22 17:30N 37°48' E 015°17'2 1.2
2017-Aug-22 16:02N 37°50' E 015°17'0 0.0
2017-Aug-22 15:32N 37°50' E 015°17'0 0.0
2017-Aug-22 10:14N 37°50' E 015°17'0 0.4
2017-Aug-22 10:00N 37°50' E 015°17'611.4
2017-Aug-22 09:26N 37°55' E 015°23'512.2
2017-Aug-22 09:00N 37°59' E 015°27'611.6
2017-Aug-22 08:30N 38°04' E 015°30'611.6
2017-Aug-22 08:01N 38°09' E 015°35'713.4
2017-Aug-22 07:30N 38°15' E 015°38'612.6
2017-Aug-22 07:00N 38°21' E 015°39'714.4
2017-Aug-22 06:30N 38°28' E 015°36'713.3
2017-Aug-22 06:00N 38°34' E 015°32'713.2
2017-Aug-22 05:30N 38°39' E 015°28'711.9
2017-Aug-22 04:55N 38°46' E 015°26'511.9
2017-Aug-22 04:29N 38°51' E 015°23'3411.9
2017-Aug-22 01:37N 39°23' E 015°06'111.9
2017-Aug-22 01:30N 39°24' E 015°05'85 3.0
2017-Aug-20 21:04N 40°40' E 014°15'1 8.5
2017-Aug-20 21:00N 40°40' E 014°16'4 7.9
2017-Aug-20 20:30N 40°40' E 014°21'2 3.9
2017-Aug-20 20:00N 40°38' E 014°23'0 0.1
2017-Aug-20 19:19N 40°38' E 014°23'0 0.1
2017-Aug-20 18:52N 40°38' E 014°23'0 0.0
2017-Aug-20 18:25N 40°38' E 014°23'0 0.0
2017-Aug-20 17:55N 40°38' E 014°23'0 0.0
2017-Aug-20 17:25N 40°38' E 014°23'0 0.0
2017-Aug-20 16:55N 40°38' E 014°23'0 0.0
2017-Aug-20 16:25N 40°38' E 014°23'0 0.0
2017-Aug-20 15:52N 40°38' E 014°23'0 0.0
2017-Aug-20 15:28N 40°38' E 014°23'0 0.0
2017-Aug-20 14:58N 40°38' E 014°23'0 0.0
2017-Aug-20 14:28N 40°38' E 014°23'0 0.0
2017-Aug-20 13:58N 40°38' E 014°23'0 0.0
2017-Aug-20 13:28N 40°38' E 014°23'0 0.0
2017-Aug-20 12:58N 40°38' E 014°23'0 0.0
2017-Aug-20 12:28N 40°38' E 014°23'0 0.0
2017-Aug-20 11:58N 40°38' E 014°23'0 0.1
2017-Aug-20 11:28N 40°38' E 014°23'0 0.1
2017-Aug-20 10:58N 40°38' E 014°23'0 0.1
2017-Aug-20 10:28N 40°38' E 014°23'0 0.0
2017-Aug-20 09:58N 40°38' E 014°23'0 0.0
2017-Aug-20 09:28N 40°38' E 014°23'0 0.1
2017-Aug-20 08:58N 40°38' E 014°23'0 0.0
2017-Aug-20 08:19N 40°38' E 014°23'0 0.0
2017-Aug-20 07:49N 40°38' E 014°23'0 0.0
2017-Aug-20 07:19N 40°38' E 014°23'0 0.0
2017-Aug-20 06:52N 40°38' E 014°23'0 0.1
2017-Aug-20 06:22N 40°38' E 014°23'0 0.0
2017-Aug-20 05:52N 40°38' E 014°23'1 3.5
2017-Aug-20 05:30N 40°39' E 014°22'612.8
2017-Aug-20 05:00N 40°39' E 014°13'612.5
2017-Aug-20 04:30N 40°38' E 014°05'612.3
2017-Aug-20 04:00N 40°38' E 013°57'612.4
2017-Aug-20 03:30N 40°38' E 013°49'612.3
2017-Aug-20 03:00N 40°39' E 013°41'612.3
2017-Aug-20 02:30N 40°40' E 013°33'612.4
2017-Aug-20 02:00N 40°42' E 013°25'1712.4
2017-Aug-20 00:38N 40°48' E 013°04'212.4
2017-Aug-20 00:30N 40°48' E 013°02'612.5
2017-Aug-20 00:00N 40°51' E 012°54'100 4.5
2017-Aug-19 01:55N 42°02' E 011°21'717.0
2017-Aug-19 01:30N 42°00' E 011°12'816.7
2017-Aug-19 01:00N 42°01' E 011°01'816.6
2017-Aug-19 00:30N 42°04' E 010°50'2414.4
2017-Aug-18 22:48N 42°22' E 010°29'1314.8
2017-Aug-18 21:57N 42°32' E 010°19'1114.5
2017-Aug-18 21:12N 42°40' E 010°09'314.1
2017-Aug-18 21:01N 42°42' E 010°06'713.1
2017-Aug-18 20:30N 42°48' E 010°03'918.5
2017-Aug-18 20:00N 42°57' E 010°04'917.7
2017-Aug-18 19:30N 43°06' E 010°05'816.0
2017-Aug-18 19:00N 43°14' E 010°07'816.1
2017-Aug-18 18:31N 43°22' E 010°11'816.5
2017-Aug-18 18:01N 43°30' E 010°11'510.7
2017-Aug-18 17:30N 43°33' E 010°17'0 0.8
2017-Aug-18 16:59N 43°33' E 010°18'0 0.0
2017-Aug-18 16:29N 43°33' E 010°18'0 0.0
2017-Aug-18 15:53N 43°33' E 010°18'0 0.0
2017-Aug-18 15:29N 43°33' E 010°18'0 0.0
2017-Aug-18 14:59N 43°33' E 010°18'0 0.0
2017-Aug-18 14:29N 43°33' E 010°18'0 0.0
2017-Aug-18 13:23N 43°33' E 010°18'0 0.0
2017-Aug-18 12:59N 43°33' E 010°18'0 0.0
2017-Aug-18 12:29N 43°33' E 010°18'0 0.0
2017-Aug-18 11:59N 43°33' E 010°18'0 0.0
2017-Aug-18 11:29N 43°33' E 010°18'0 0.0
2017-Aug-18 10:59N 43°33' E 010°18'0 0.0
2017-Aug-18 10:29N 43°33' E 010°18'0 0.0
2017-Aug-18 09:59N 43°33' E 010°18'0 0.0
2017-Aug-18 09:23N 43°33' E 010°18'0 0.0
2017-Aug-18 08:53N 43°33' E 010°18'0 0.0
2017-Aug-18 08:29N 43°33' E 010°18'0 0.0
2017-Aug-18 07:47N 43°33' E 010°18'0 0.0
2017-Aug-18 07:29N 43°33' E 010°18'0 0.0
2017-Aug-18 06:59N 43°33' E 010°18'0 0.0
2017-Aug-18 06:29N 43°33' E 010°18'0 0.0
2017-Aug-18 05:59N 43°33' E 010°18'0 0.0
2017-Aug-18 05:23N 43°33' E 010°18'0 0.0
2017-Aug-18 04:59N 43°33' E 010°18'0 0.6
2017-Aug-18 04:30N 43°33' E 010°18'2 3.9
2017-Aug-18 04:00N 43°32' E 010°16'3 6.6
2017-Aug-18 03:30N 43°30' E 010°12'5 9.2
2017-Aug-18 03:00N 43°30' E 010°05'5 9.2
2017-Aug-18 02:30N 43°31' E 009°59'4 8.5
2017-Aug-18 02:00N 43°32' E 009°53'5 9.4
2017-Aug-18 01:30N 43°34' E 009°47'5 9.2
2017-Aug-18 01:00N 43°35' E 009°41'4 8.6
2017-Aug-18 00:30N 43°37' E 009°36'4 8.9
2017-Aug-18 00:00N 43°41' E 009°33'4 8.7
2017-Aug-17 23:30N 43°44' E 009°30'4 8.6
2017-Aug-17 23:00N 43°48' E 009°26'4 8.0
2017-Aug-17 22:30N 43°51' E 009°24'4 7.9
2017-Aug-17 22:00N 43°55' E 009°21'4 8.2
2017-Aug-17 21:30N 43°58' E 009°18'4 8.4
2017-Aug-17 21:00N 44°02' E 009°16'713.4
2017-Aug-17 20:30N 44°09' E 009°16'714.5
2017-Aug-17 20:00N 44°16' E 009°16'3 4.9
2017-Aug-17 19:28N 44°18' E 009°14'0 0.0
2017-Aug-17 18:58N 44°18' E 009°14'0 0.0
2017-Aug-17 18:28N 44°18' E 009°14'0 0.0
2017-Aug-17 17:58N 44°18' E 009°14'0 0.0
2017-Aug-17 17:28N 44°18' E 009°14'0 0.0
2017-Aug-17 16:52N 44°18' E 009°14'0 0.1
2017-Aug-17 16:28N 44°18' E 009°14'0 0.0
2017-Aug-17 15:58N 44°18' E 009°14'0 0.0
2017-Aug-17 15:25N 44°18' E 009°14'0 0.0
2017-Aug-17 14:55N 44°18' E 009°14'0 0.0
2017-Aug-17 14:25N 44°18' E 009°14'0 0.0
2017-Aug-17 13:58N 44°18' E 009°14'0 0.0
2017-Aug-17 13:28N 44°18' E 009°14'0 0.0
2017-Aug-17 12:58N 44°18' E 009°14'0 0.0
2017-Aug-17 12:25N 44°18' E 009°14'0 0.1
2017-Aug-17 11:58N 44°18' E 009°14'0 0.0
2017-Aug-17 11:28N 44°18' E 009°14'0 0.0
2017-Aug-17 10:58N 44°18' E 009°14'0 0.0
2017-Aug-17 10:28N 44°18' E 009°14'0 0.1
2017-Aug-17 09:58N 44°18' E 009°14'0 0.0
2017-Aug-17 09:28N 44°18' E 009°14'0 0.0
2017-Aug-17 08:58N 44°18' E 009°14'0 0.1
2017-Aug-17 08:25N 44°18' E 009°14'0 0.1
2017-Aug-17 07:55N 44°18' E 009°14'0 0.0
2017-Aug-17 07:28N 44°18' E 009°14'0 0.0
2017-Aug-17 06:55N 44°18' E 009°14'0 0.1
2017-Aug-17 06:22N 44°18' E 009°14'0 0.0
2017-Aug-17 05:58N 44°18' E 009°14'0 0.0
2017-Aug-17 05:28N 44°18' E 009°14'2 4.4
2017-Aug-17 05:00N 44°17' E 009°16'4 8.7
2017-Aug-17 04:30N 44°13' E 009°15'4 8.9
2017-Aug-17 04:01N 44°09' E 009°12'4 7.4
2017-Aug-17 03:30N 44°05' E 009°11'4 7.3
2017-Aug-17 03:00N 44°02' E 009°09'611.6
2017-Aug-17 02:30N 43°60' E 009°01'4 8.9
2017-Aug-17 02:00N 43°58' E 008°56'4 8.0
2017-Aug-17 01:31N 43°56' E 008°51'4 7.9
2017-Aug-17 01:00N 43°54' E 008°46'4 8.0
2017-Aug-17 00:30N 43°52' E 008°42'4 8.0
2017-Aug-17 00:00N 43°49' E 008°37'4 8.0
2017-Aug-16 23:30N 43°47' E 008°32'5 9.9
2017-Aug-16 23:00N 43°45' E 008°26'714.6
2017-Aug-16 22:30N 43°41' E 008°17'714.5
2017-Aug-16 22:00N 43°38' E 008°09'714.4
2017-Aug-16 21:30N 43°35' E 007°60'714.1
2017-Aug-16 21:00N 43°32' E 007°51'713.9
2017-Aug-16 20:30N 43°31' E 007°41'714.5
2017-Aug-16 20:00N 43°34' E 007°32'914.5
2017-Aug-16 19:25N 43°39' E 007°22'4 0.1
2017-Aug-15 15:05N 43°40' E 007°17'313.7
2017-Aug-15 14:53N 43°37' E 007°18'5 9.1
2017-Aug-15 14:23N 43°33' E 007°21'615.2
2017-Aug-15 14:00N 43°28' E 007°24'713.0
2017-Aug-15 13:30N 43°22' E 007°19'714.4
2017-Aug-15 13:00N 43°18' E 007°11'714.3
2017-Aug-15 12:30N 43°14' E 007°02'714.1
2017-Aug-15 12:00N 43°15' E 006°53'714.2
2017-Aug-15 11:30N 43°18' E 006°44'5 8.8
2017-Aug-15 10:59N 43°17' E 006°37'0 0.0
2017-Aug-15 09:22N 43°17' E 006°37'0 0.0
2017-Aug-15 07:24N 43°17' E 006°37'0 0.0
2017-Aug-15 06:03N 43°17' E 006°37'0 0.0
2017-Aug-15 05:16N 43°17' E 006°37'0 0.0
2017-Aug-15 04:55N 43°17' E 006°37'0 0.0
2017-Aug-14 23:33N 43°17' E 006°37'0 0.1
2017-Aug-14 23:30N 43°17' E 006°37'0 0.0
2017-Aug-14 23:00N 43°17' E 006°37'0 0.0
2017-Aug-14 22:21N 43°17' E 006°37'0 0.0
2017-Aug-14 22:00N 43°17' E 006°37'0 0.0
2017-Aug-14 21:30N 43°17' E 006°37'0 0.0
2017-Aug-14 20:59N 43°17' E 006°37'0 0.0
2017-Aug-14 20:28N 43°17' E 006°37'0 0.0
2017-Aug-14 19:55N 43°17' E 006°37'0 0.1
2017-Aug-14 19:30N 43°17' E 006°37'0 0.0
2017-Aug-14 18:44N 43°17' E 006°37'0 0.1
2017-Aug-14 18:28N 43°17' E 006°37'0 0.0
2017-Aug-14 17:38N 43°17' E 006°37'0 0.1
2017-Aug-14 17:30N 43°17' E 006°37'0 0.0
2017-Aug-14 17:00N 43°17' E 006°37'0 0.0
2017-Aug-14 16:30N 43°17' E 006°37'0 0.1
2017-Aug-14 16:00N 43°17' E 006°37'0 0.1
2017-Aug-14 15:30N 43°17' E 006°37'0 0.0
2017-Aug-14 14:54N 43°17' E 006°37'0 0.0
2017-Aug-14 14:30N 43°17' E 006°37'0 0.0
2017-Aug-14 13:57N 43°17' E 006°37'0 0.0
2017-Aug-14 13:24N 43°17' E 006°37'0 0.0
2017-Aug-14 13:00N 43°17' E 006°37'0 0.0
2017-Aug-14 12:30N 43°17' E 006°37'0 0.0
2017-Aug-14 11:33N 43°17' E 006°37'0 0.1
2017-Aug-14 11:28N 43°17' E 006°37'0 0.0
2017-Aug-14 10:59N 43°17' E 006°37'0 0.0
2017-Aug-14 10:29N 43°17' E 006°37'0 0.0
2017-Aug-14 09:32N 43°17' E 006°37'0 0.2
2017-Aug-14 09:30N 43°17' E 006°37'3 4.9
2017-Aug-14 08:59N 43°18' E 006°41'613.3
2017-Aug-14 08:30N 43°14' E 006°48'713.8
2017-Aug-14 08:00N 43°08' E 006°53'714.7
2017-Aug-14 07:30N 43°02' E 006°57'917.3
2017-Aug-14 07:00N 42°55' E 006°50'917.3
2017-Aug-14 06:30N 42°48' E 006°43'917.3
2017-Aug-14 06:00N 42°44' E 006°33'916.9
2017-Aug-14 05:30N 42°41' E 006°22'817.2
2017-Aug-14 05:00N 42°38' E 006°11'917.4
2017-Aug-14 04:29N 42°34' E 005°60'816.2
2017-Aug-14 04:00N 42°31' E 005°50'815.2
2017-Aug-14 03:30N 42°28' E 005°41'815.1
2017-Aug-14 03:00N 42°25' E 005°31'815.1
2017-Aug-14 02:30N 42°22' E 005°22'814.9
2017-Aug-14 02:00N 42°18' E 005°13'715.0
2017-Aug-14 01:30N 42°15' E 005°04'715.0
2017-Aug-14 01:00N 42°12' E 004°55'815.0
2017-Aug-14 00:30N 42°09' E 004°46'815.6
2017-Aug-14 00:00N 42°07' E 004°36'815.5
2017-Aug-13 23:30N 42°03' E 004°26'815.0
2017-Aug-13 23:00N 41°60' E 004°17'815.8
2017-Aug-13 22:30N 41°57' E 004°07'815.4
2017-Aug-13 22:00N 41°54' E 003°57'715.1
2017-Aug-13 21:30N 41°51' E 003°48'714.9
2017-Aug-13 21:00N 41°48' E 003°39'815.4
2017-Aug-13 20:30N 41°45' E 003°30'3115.2
2017-Aug-13 18:27N 41°32' E 002°52'  
Track history (hours):
 
Tides and Currents Weather Stations Pressure Air Temp Water Temp Dewpoint Dewpoint Depression Visibility Wind Speed Wind Dir Waves Ship Positions

Azamara Quest

Last reported at 2017-Aug-23 05:18 UTC. Time now 2017-Aug-23 13:38 UTC.
Position N 35°54' E 014°31'.

Length 181 m; draft 5.9 m.

Type: Passenger vessel. MMSI: 256216000.

Date/timePositionNaut miles runAvg speedWind from/ knotsBaromVisibWave heightAir tempDewpointWater temp
2017-Aug-23 05:18N 35°54' E 014°31'2 7.2
2017-Aug-23 05:00N 35°55' E 014°33'611.2
2017-Aug-23 04:30N 36°00' E 014°37'1210.9
2017-Aug-23 03:24N 36°10' E 014°46'9410.2
2017-Aug-22 18:11N 37°40' E 015°19'311.6
2017-Aug-22 17:55N 37°43' E 015°18'511.8
2017-Aug-22 17:30N 37°48' E 015°17'2 1.2
2017-Aug-22 16:02N 37°50' E 015°17'0 0.0
2017-Aug-22 15:32N 37°50' E 015°17'0 0.0
2017-Aug-22 10:14N 37°50' E 015°17'0 0.4
2017-Aug-22 10:00N 37°50' E 015°17'611.4
2017-Aug-22 09:26N 37°55' E 015°23'512.2
2017-Aug-22 09:00N 37°59' E 015°27'611.6
2017-Aug-22 08:30N 38°04' E 015°30'611.6
2017-Aug-22 08:01N 38°09' E 015°35'713.4
2017-Aug-22 07:30N 38°15' E 015°38'612.6
2017-Aug-22 07:00N 38°21' E 015°39'714.4
2017-Aug-22 06:30N 38°28' E 015°36'713.3
2017-Aug-22 06:00N 38°34' E 015°32'713.2
2017-Aug-22 05:30N 38°39' E 015°28'711.9
2017-Aug-22 04:55N 38°46' E 015°26'511.9
2017-Aug-22 04:29N 38°51' E 015°23'3411.9
2017-Aug-22 01:37N 39°23' E 015°06'111.9
2017-Aug-22 01:30N 39°24' E 015°05'85 3.0
2017-Aug-20 21:04N 40°40' E 014°15'1 8.5
2017-Aug-20 21:00N 40°40' E 014°16'4 7.9
2017-Aug-20 20:30N 40°40' E 014°21'2 3.9
2017-Aug-20 20:00N 40°38' E 014°23'0 0.1
2017-Aug-20 19:19N 40°38' E 014°23'0 0.1
2017-Aug-20 18:52N 40°38' E 014°23'0 0.0
2017-Aug-20 18:25N 40°38' E 014°23'0 0.0
2017-Aug-20 17:55N 40°38' E 014°23'0 0.0
2017-Aug-20 17:25N 40°38' E 014°23'0 0.0
2017-Aug-20 16:55N 40°38' E 014°23'0 0.0
2017-Aug-20 16:25N 40°38' E 014°23'0 0.0
2017-Aug-20 15:52N 40°38' E 014°23'0 0.0
2017-Aug-20 15:28N 40°38' E 014°23'0 0.0
2017-Aug-20 14:58N 40°38' E 014°23'0 0.0
2017-Aug-20 14:28N 40°38' E 014°23'0 0.0
2017-Aug-20 13:58N 40°38' E 014°23'0 0.0
2017-Aug-20 13:28N 40°38' E 014°23'0 0.0
2017-Aug-20 12:58N 40°38' E 014°23'0 0.0
2017-Aug-20 12:28N 40°38' E 014°23'0 0.0
2017-Aug-20 11:58N 40°38' E 014°23'0 0.1
2017-Aug-20 11:28N 40°38' E 014°23'0 0.1
2017-Aug-20 10:58N 40°38' E 014°23'0 0.1
2017-Aug-20 10:28N 40°38' E 014°23'0 0.0
2017-Aug-20 09:58N 40°38' E 014°23'0 0.0
2017-Aug-20 09:28N 40°38' E 014°23'0 0.1
2017-Aug-20 08:58N 40°38' E 014°23'0 0.0
2017-Aug-20 08:19N 40°38' E 014°23'0 0.0
2017-Aug-20 07:49N 40°38' E 014°23'0 0.0
2017-Aug-20 07:19N 40°38' E 014°23'0 0.0
2017-Aug-20 06:52N 40°38' E 014°23'0 0.1
2017-Aug-20 06:22N 40°38' E 014°23'0 0.0
2017-Aug-20 05:52N 40°38' E 014°23'1 3.5
2017-Aug-20 05:30N 40°39' E 014°22'612.8
2017-Aug-20 05:00N 40°39' E 014°13'612.5
2017-Aug-20 04:30N 40°38' E 014°05'612.3
2017-Aug-20 04:00N 40°38' E 013°57'612.4
2017-Aug-20 03:30N 40°38' E 013°49'612.3
2017-Aug-20 03:00N 40°39' E 013°41'612.3
2017-Aug-20 02:30N 40°40' E 013°33'612.4
2017-Aug-20 02:00N 40°42' E 013°25'1712.4
2017-Aug-20 00:38N 40°48' E 013°04'212.4
2017-Aug-20 00:30N 40°48' E 013°02'612.5
2017-Aug-20 00:00N 40°51' E 012°54'100 4.5
2017-Aug-19 01:55N 42°02' E 011°21'717.0
2017-Aug-19 01:30N 42°00' E 011°12'816.7
2017-Aug-19 01:00N 42°01' E 011°01'816.6
2017-Aug-19 00:30N 42°04' E 010°50'2414.4
2017-Aug-18 22:48N 42°22' E 010°29'1314.8
2017-Aug-18 21:57N 42°32' E 010°19'1114.5
2017-Aug-18 21:12N 42°40' E 010°09'314.1
2017-Aug-18 21:01N 42°42' E 010°06'713.1
2017-Aug-18 20:30N 42°48' E 010°03'918.5
2017-Aug-18 20:00N 42°57' E 010°04'917.7
2017-Aug-18 19:30N 43°06' E 010°05'816.0
2017-Aug-18 19:00N 43°14' E 010°07'816.1
2017-Aug-18 18:31N 43°22' E 010°11'816.5
2017-Aug-18 18:01N 43°30' E 010°11'510.7
2017-Aug-18 17:30N 43°33' E 010°17'0 0.8
2017-Aug-18 16:59N 43°33' E 010°18'0 0.0
2017-Aug-18 16:29N 43°33' E 010°18'0 0.0
2017-Aug-18 15:53N 43°33' E 010°18'0 0.0
2017-Aug-18 15:29N 43°33' E 010°18'0 0.0
2017-Aug-18 14:59N 43°33' E 010°18'0 0.0
2017-Aug-18 14:29N 43°33' E 010°18'0 0.0
2017-Aug-18 13:23N 43°33' E 010°18'0 0.0
2017-Aug-18 12:59N 43°33' E 010°18'0 0.0
2017-Aug-18 12:29N 43°33' E 010°18'0 0.0
2017-Aug-18 11:59N 43°33' E 010°18'0 0.0
2017-Aug-18 11:29N 43°33' E 010°18'0 0.0
2017-Aug-18 10:59N 43°33' E 010°18'0 0.0
2017-Aug-18 10:29N 43°33' E 010°18'0 0.0
2017-Aug-18 09:59N 43°33' E 010°18'0 0.0
2017-Aug-18 09:23N 43°33' E 010°18'0 0.0
2017-Aug-18 08:53N 43°33' E 010°18'0 0.0
2017-Aug-18 08:29N 43°33' E 010°18'0 0.0
2017-Aug-18 07:47N 43°33' E 010°18'0 0.0
2017-Aug-18 07:29N 43°33' E 010°18'0 0.0
2017-Aug-18 06:59N 43°33' E 010°18'0 0.0
2017-Aug-18 06:29N 43°33' E 010°18'0 0.0
2017-Aug-18 05:59N 43°33' E 010°18'0 0.0
2017-Aug-18 05:23N 43°33' E 010°18'0 0.0
2017-Aug-18 04:59N 43°33' E 010°18'0 0.6
2017-Aug-18 04:30N 43°33' E 010°18'2 3.9
2017-Aug-18 04:00N 43°32' E 010°16'3 6.6
2017-Aug-18 03:30N 43°30' E 010°12'5 9.2
2017-Aug-18 03:00N 43°30' E 010°05'5 9.2
2017-Aug-18 02:30N 43°31' E 009°59'4 8.5
2017-Aug-18 02:00N 43°32' E 009°53'5 9.4
2017-Aug-18 01:30N 43°34' E 009°47'5 9.2
2017-Aug-18 01:00N 43°35' E 009°41'4 8.6
2017-Aug-18 00:30N 43°37' E 009°36'4 8.9
2017-Aug-18 00:00N 43°41' E 009°33'4 8.7
2017-Aug-17 23:30N 43°44' E 009°30'4 8.6
2017-Aug-17 23:00N 43°48' E 009°26'4 8.0
2017-Aug-17 22:30N 43°51' E 009°24'4 7.9
2017-Aug-17 22:00N 43°55' E 009°21'4 8.2
2017-Aug-17 21:30N 43°58' E 009°18'4 8.4
2017-Aug-17 21:00N 44°02' E 009°16'713.4
2017-Aug-17 20:30N 44°09' E 009°16'714.5
2017-Aug-17 20:00N 44°16' E 009°16'3 4.9
2017-Aug-17 19:28N 44°18' E 009°14'0 0.0
2017-Aug-17 18:58N 44°18' E 009°14'0 0.0
2017-Aug-17 18:28N 44°18' E 009°14'0 0.0
2017-Aug-17 17:58N 44°18' E 009°14'0 0.0
2017-Aug-17 17:28N 44°18' E 009°14'0 0.0
2017-Aug-17 16:52N 44°18' E 009°14'0 0.1
2017-Aug-17 16:28N 44°18' E 009°14'0 0.0
2017-Aug-17 15:58N 44°18' E 009°14'0 0.0
2017-Aug-17 15:25N 44°18' E 009°14'0 0.0
2017-Aug-17 14:55N 44°18' E 009°14'0 0.0
2017-Aug-17 14:25N 44°18' E 009°14'0 0.0
2017-Aug-17 13:58N 44°18' E 009°14'0 0.0
2017-Aug-17 13:28N 44°18' E 009°14'0 0.0
2017-Aug-17 12:58N 44°18' E 009°14'0 0.0
2017-Aug-17 12:25N 44°18' E 009°14'0 0.1
2017-Aug-17 11:58N 44°18' E 009°14'0 0.0
2017-Aug-17 11:28N 44°18' E 009°14'0 0.0
2017-Aug-17 10:58N 44°18' E 009°14'0 0.0
2017-Aug-17 10:28N 44°18' E 009°14'0 0.1
2017-Aug-17 09:58N 44°18' E 009°14'0 0.0
2017-Aug-17 09:28N 44°18' E 009°14'0 0.0
2017-Aug-17 08:58N 44°18' E 009°14'0 0.1
2017-Aug-17 08:25N 44°18' E 009°14'0 0.1
2017-Aug-17 07:55N 44°18' E 009°14'0 0.0
2017-Aug-17 07:28N 44°18' E 009°14'0 0.0
2017-Aug-17 06:55N 44°18' E 009°14'0 0.1
2017-Aug-17 06:22N 44°18' E 009°14'0 0.0
2017-Aug-17 05:58N 44°18' E 009°14'0 0.0
2017-Aug-17 05:28N 44°18' E 009°14'2 4.4
2017-Aug-17 05:00N 44°17' E 009°16'4 8.7
2017-Aug-17 04:30N 44°13' E 009°15'4 8.9
2017-Aug-17 04:01N 44°09' E 009°12'4 7.4
2017-Aug-17 03:30N 44°05' E 009°11'4 7.3
2017-Aug-17 03:00N 44°02' E 009°09'611.6
2017-Aug-17 02:30N 43°60' E 009°01'4 8.9
2017-Aug-17 02:00N 43°58' E 008°56'4 8.0
2017-Aug-17 01:31N 43°56' E 008°51'4 7.9
2017-Aug-17 01:00N 43°54' E 008°46'4 8.0
2017-Aug-17 00:30N 43°52' E 008°42'4 8.0
2017-Aug-17 00:00N 43°49' E 008°37'4 8.0
2017-Aug-16 23:30N 43°47' E 008°32'5 9.9
2017-Aug-16 23:00N 43°45' E 008°26'714.6
2017-Aug-16 22:30N 43°41' E 008°17'714.5
2017-Aug-16 22:00N 43°38' E 008°09'714.4
2017-Aug-16 21:30N 43°35' E 007°60'714.1
2017-Aug-16 21:00N 43°32' E 007°51'713.9
2017-Aug-16 20:30N 43°31' E 007°41'714.5
2017-Aug-16 20:00N 43°34' E 007°32'914.5
2017-Aug-16 19:25N 43°39' E 007°22'4 0.1
2017-Aug-15 15:05N 43°40' E 007°17'313.7
2017-Aug-15 14:53N 43°37' E 007°18'5 9.1
2017-Aug-15 14:23N 43°33' E 007°21'615.2
2017-Aug-15 14:00N 43°28' E 007°24'713.0
2017-Aug-15 13:30N 43°22' E 007°19'714.4
2017-Aug-15 13:00N 43°18' E 007°11'714.3
2017-Aug-15 12:30N 43°14' E 007°02'714.1
2017-Aug-15 12:00N 43°15' E 006°53'714.2
2017-Aug-15 11:30N 43°18' E 006°44'5 8.8
2017-Aug-15 10:59N 43°17' E 006°37'0 0.0
2017-Aug-15 09:22N 43°17' E 006°37'0 0.0
2017-Aug-15 07:24N 43°17' E 006°37'0 0.0
2017-Aug-15 06:03N 43°17' E 006°37'0 0.0
2017-Aug-15 05:16N 43°17' E 006°37'0 0.0
2017-Aug-15 04:55N 43°17' E 006°37'0 0.0
2017-Aug-14 23:33N 43°17' E 006°37'0 0.1
2017-Aug-14 23:30N 43°17' E 006°37'0 0.0
2017-Aug-14 23:00N 43°17' E 006°37'0 0.0
2017-Aug-14 22:21N 43°17' E 006°37'0 0.0
2017-Aug-14 22:00N 43°17' E 006°37'0 0.0
2017-Aug-14 21:30N 43°17' E 006°37'0 0.0
2017-Aug-14 20:59N 43°17' E 006°37'0 0.0
2017-Aug-14 20:28N 43°17' E 006°37'0 0.0
2017-Aug-14 19:55N 43°17' E 006°37'0 0.1
2017-Aug-14 19:30N 43°17' E 006°37'0 0.0
2017-Aug-14 18:44N 43°17' E 006°37'0 0.1
2017-Aug-14 18:28N 43°17' E 006°37'0 0.0
2017-Aug-14 17:38N 43°17' E 006°37'0 0.1
2017-Aug-14 17:30N 43°17' E 006°37'0 0.0
2017-Aug-14 17:00N 43°17' E 006°37'0 0.0
2017-Aug-14 16:30N 43°17' E 006°37'0 0.1
2017-Aug-14 16:00N 43°17' E 006°37'0 0.1
2017-Aug-14 15:30N 43°17' E 006°37'0 0.0
2017-Aug-14 14:54N 43°17' E 006°37'0 0.0
2017-Aug-14 14:30N 43°17' E 006°37'0 0.0
2017-Aug-14 13:57N 43°17' E 006°37'0 0.0
2017-Aug-14 13:24N 43°17' E 006°37'0 0.0
2017-Aug-14 13:00N 43°17' E 006°37'0 0.0
2017-Aug-14 12:30N 43°17' E 006°37'0 0.0
2017-Aug-14 11:33N 43°17' E 006°37'0 0.1
2017-Aug-14 11:28N 43°17' E 006°37'0 0.0
2017-Aug-14 10:59N 43°17' E 006°37'0 0.0
2017-Aug-14 10:29N 43°17' E 006°37'0 0.0
2017-Aug-14 09:32N 43°17' E 006°37'0 0.2
2017-Aug-14 09:30N 43°17' E 006°37'3 4.9
2017-Aug-14 08:59N 43°18' E 006°41'613.3
2017-Aug-14 08:30N 43°14' E 006°48'713.8
2017-Aug-14 08:00N 43°08' E 006°53'714.7
2017-Aug-14 07:30N 43°02' E 006°57'917.3
2017-Aug-14 07:00N 42°55' E 006°50'917.3
2017-Aug-14 06:30N 42°48' E 006°43'917.3
2017-Aug-14 06:00N 42°44' E 006°33'916.9
2017-Aug-14 05:30N 42°41' E 006°22'817.2
2017-Aug-14 05:00N 42°38' E 006°11'917.4
2017-Aug-14 04:29N 42°34' E 005°60'816.2
2017-Aug-14 04:00N 42°31' E 005°50'815.2
2017-Aug-14 03:30N 42°28' E 005°41'815.1
2017-Aug-14 03:00N 42°25' E 005°31'815.1
2017-Aug-14 02:30N 42°22' E 005°22'814.9
2017-Aug-14 02:00N 42°18' E 005°13'715.0
2017-Aug-14 01:30N 42°15' E 005°04'715.0
2017-Aug-14 01:00N 42°12' E 004°55'815.0
2017-Aug-14 00:30N 42°09' E 004°46'815.6
2017-Aug-14 00:00N 42°07' E 004°36'815.5
2017-Aug-13 23:30N 42°03' E 004°26'815.0
2017-Aug-13 23:00N 41°60' E 004°17'815.8
2017-Aug-13 22:30N 41°57' E 004°07'815.4
2017-Aug-13 22:00N 41°54' E 003°57'715.1
2017-Aug-13 21:30N 41°51' E 003°48'714.9
2017-Aug-13 21:00N 41°48' E 003°39'815.4
2017-Aug-13 20:30N 41°45' E 003°30'3115.2
2017-Aug-13 18:27N 41°32' E 002°52'  

Dump ship's entire track history